Elkhorn, West Virginia
Current Conditions -  °F | °C
As of 1:52 AM on Thursday 23 Oct 2014 (Local Time) from KBLF Reporting Station
Overcast Overcast  
Wind Chill:   Ceiling: 1500
Heat Index:   Visibility: 10mi
Dew Point:   Wind: 8mph
Humidity: 82%   Direction: 340°NNW
Pressure: 30.14"   Gusts: NA
Location:  37.39°N, 81.41°W
Report Text: KBLF 230552Z AUTO 34007KT 290V360 10SM OVC015 06/03 A3014 RMK AO2 SLP207 60001 T00610033 10067 20061 58010
Loading
Personal Weather Stations






























Interactive Weather Map
Tropical Storm Tracking
New forecast layout! Learn more

10-Day Weather Forecast

Advertisements
Track Severe Weather on mobile